createdAt,value
2018-02-18T00:01:04.609Z,1.03
2018-02-18T00:03:32.950Z,1.03
2018-02-18T00:06:01.294Z,1.04
2018-02-18T00:08:29.638Z,1.04
2018-02-18T00:10:57.981Z,1.00
2018-02-18T00:13:26.415Z,0.95
2018-02-18T00:15:54.818Z,1.03
2018-02-18T00:18:23.107Z,0.94
2018-02-18T00:20:51.455Z,1.00
2018-02-18T00:23:19.811Z,0.89
2018-02-18T00:25:48.159Z,0.79
2018-02-18T00:28:16.504Z,0.84
2018-02-18T00:30:44.897Z,0.86
2018-02-18T00:33:13.238Z,0.86
2018-02-18T00:35:41.556Z,0.90
2018-02-18T00:38:09.924Z,0.71
2018-02-18T00:40:38.250Z,0.83
2018-02-18T00:43:06.610Z,0.83
2018-02-18T00:45:34.948Z,0.80
2018-02-18T00:48:03.372Z,0.75
2018-02-18T00:50:31.691Z,0.87
2018-02-18T00:53:00.059Z,0.86
2018-02-18T00:55:28.393Z,0.88
2018-02-18T00:57:56.743Z,0.90
2018-02-18T01:00:25.080Z,0.93
2018-02-18T01:02:53.631Z,0.83
2018-02-18T01:05:22.053Z,0.84
2018-02-18T01:07:50.394Z,0.85
2018-02-18T01:10:18.751Z,0.87
2018-02-18T01:12:47.085Z,0.85
2018-02-18T01:15:15.430Z,0.85
2018-02-18T01:17:43.758Z,0.98
2018-02-18T01:20:12.123Z,3.37
2018-02-18T01:22:40.432Z,1.67
2018-02-18T01:25:08.790Z,1.29
2018-02-18T01:27:37.124Z,1.00
2018-02-18T01:30:05.500Z,0.85
2018-02-18T01:32:33.860Z,0.92
2018-02-18T01:35:02.239Z,0.83
2018-02-18T01:37:30.571Z,0.86
2018-02-18T01:39:58.940Z,0.83
2018-02-18T01:42:27.375Z,0.69
2018-02-18T01:44:55.707Z,0.78
2018-02-18T01:47:24.063Z,0.79
2018-02-18T01:49:52.390Z,0.74
2018-02-18T01:52:20.742Z,0.83
2018-02-18T01:54:49.282Z,0.82
2018-02-18T01:57:17.631Z,0.82
2018-02-18T01:59:45.954Z,0.79
2018-02-18T02:02:14.310Z,0.81
2018-02-18T02:04:42.688Z,0.82
2018-02-18T02:07:11.094Z,0.76
2018-02-18T02:09:39.479Z,0.71
2018-02-18T02:12:07.858Z,0.73
2018-02-18T02:14:36.180Z,0.75
2018-02-18T02:17:04.530Z,0.80
2018-02-18T02:19:32.863Z,0.79
2018-02-18T02:22:01.199Z,0.81
2018-02-18T02:24:30.025Z,0.75
2018-02-18T02:26:58.359Z,0.75
2018-02-18T02:29:26.704Z,0.71
2018-02-18T02:31:55.035Z,0.74
2018-02-18T02:34:23.393Z,0.72
2018-02-18T02:36:51.730Z,0.80
2018-02-18T02:39:20.098Z,0.74
2018-02-18T02:41:48.442Z,0.71
2018-02-18T02:44:16.819Z,0.68
2018-02-18T02:46:45.144Z,0.70
2018-02-18T02:49:13.494Z,0.53
2018-02-18T02:51:41.832Z,0.65
2018-02-18T02:54:10.189Z,0.60
2018-02-18T02:56:38.515Z,0.59
2018-02-18T02:59:06.883Z,0.60
2018-02-18T03:01:35.216Z,0.57
2018-02-18T03:04:03.548Z,0.47
2018-02-18T03:06:31.906Z,0.60
2018-02-18T03:09:00.264Z,0.62
2018-02-18T03:11:28.590Z,0.49
2018-02-18T03:13:56.920Z,0.52
2018-02-18T03:16:25.263Z,0.57
2018-02-18T03:18:53.664Z,0.58
2018-02-18T03:21:22.016Z,0.43
2018-02-18T03:23:50.344Z,0.52
2018-02-18T03:26:18.695Z,0.57
2018-02-18T03:28:47.022Z,0.61
2018-02-18T03:31:15.397Z,0.57
2018-02-18T03:33:43.715Z,0.52
2018-02-18T03:36:12.061Z,0.50
2018-02-18T03:38:40.418Z,0.53
2018-02-18T03:41:08.735Z,0.62
2018-02-18T03:43:37.087Z,0.58
2018-02-18T03:46:05.419Z,0.57
2018-02-18T03:48:33.783Z,0.59
2018-02-18T03:51:02.117Z,0.45
2018-02-18T03:53:30.454Z,0.55
2018-02-18T03:55:58.788Z,0.57
2018-02-18T03:58:27.144Z,0.67
2018-02-18T04:00:55.478Z,0.48
2018-02-18T04:03:23.846Z,0.54
2018-02-18T04:05:52.186Z,0.53
2018-02-18T04:08:20.512Z,0.51
2018-02-18T04:10:48.855Z,0.54
2018-02-18T04:13:17.195Z,0.52
2018-02-18T04:15:45.607Z,0.60
2018-02-18T04:18:13.963Z,0.63
2018-02-18T04:20:42.336Z,0.52
2018-02-18T04:23:10.664Z,0.57
2018-02-18T04:25:39.011Z,0.59
2018-02-18T04:28:07.352Z,0.61
2018-02-18T04:30:35.694Z,0.55
2018-02-18T04:33:04.024Z,0.51
2018-02-18T04:35:32.404Z,0.57
2018-02-18T04:38:00.734Z,0.62
2018-02-18T04:40:29.062Z,0.60
2018-02-18T04:42:57.514Z,0.63
2018-02-18T04:45:25.840Z,0.57
2018-02-18T04:47:54.201Z,0.59
2018-02-18T04:50:22.516Z,0.63
2018-02-18T04:52:50.871Z,0.52
2018-02-18T04:55:19.195Z,0.62
2018-02-18T04:57:47.543Z,0.58
2018-02-18T05:00:16.797Z,0.41
2018-02-18T05:02:45.195Z,0.52
2018-02-18T05:05:13.644Z,0.53
2018-02-18T05:07:41.967Z,0.58
2018-02-18T05:10:10.330Z,0.55
2018-02-18T05:12:38.667Z,0.40
2018-02-18T05:15:07.027Z,0.29
2018-02-18T05:17:35.350Z,0.44
2018-02-18T05:20:03.708Z,0.28
2018-02-18T05:22:32.038Z,0.50
2018-02-18T05:25:00.393Z,0.50
2018-02-18T05:27:28.720Z,0.40
2018-02-18T05:29:57.168Z,0.52
2018-02-18T05:32:25.503Z,0.54
2018-02-18T05:34:53.855Z,0.52
2018-02-18T05:37:22.199Z,0.55
2018-02-18T05:39:50.519Z,0.55
2018-02-18T05:42:18.866Z,0.60
2018-02-18T05:44:47.247Z,0.62
2018-02-18T05:47:15.599Z,0.57
2018-02-18T05:49:43.936Z,0.60
2018-02-18T05:52:12.292Z,0.53
2018-02-18T05:54:40.617Z,0.40
2018-02-18T05:57:08.966Z,0.45
2018-02-18T05:59:37.303Z,0.44
2018-02-18T06:02:05.684Z,0.53
2018-02-18T06:04:34.052Z,0.60
2018-02-18T06:07:02.387Z,0.62
2018-02-18T06:09:30.739Z,0.63
2018-02-18T06:11:59.125Z,0.67
2018-02-18T06:14:27.471Z,0.70
2018-02-18T06:16:55.801Z,0.72
2018-02-18T06:19:24.153Z,0.73
2018-02-18T06:21:52.486Z,0.76
2018-02-18T06:24:20.840Z,0.73
2018-02-18T06:26:49.182Z,0.75
2018-02-18T06:29:17.602Z,0.76
2018-02-18T06:31:45.954Z,0.73
2018-02-18T06:34:14.286Z,0.78
2018-02-18T06:36:42.637Z,0.80
2018-02-18T06:39:10.965Z,0.82
2018-02-18T06:41:39.531Z,0.78
2018-02-18T06:44:07.861Z,0.76
2018-02-18T06:46:36.275Z,0.75
2018-02-18T06:49:04.631Z,0.84
2018-02-18T06:51:32.959Z,0.84
2018-02-18T06:54:01.315Z,0.83
2018-02-18T06:56:29.638Z,0.72
2018-02-18T06:58:57.983Z,0.81
2018-02-18T07:01:26.387Z,0.84
2018-02-18T07:03:54.735Z,0.91
2018-02-18T07:06:23.058Z,0.81
2018-02-18T07:08:51.390Z,0.87
2018-02-18T07:11:19.734Z,0.94
2018-02-18T07:13:48.058Z,0.95
2018-02-18T07:16:16.414Z,0.85
2018-02-18T07:18:44.742Z,0.93
2018-02-18T07:21:13.171Z,0.94
2018-02-18T07:23:41.498Z,1.02
2018-02-18T07:26:09.927Z,1.08
2018-02-18T07:28:38.259Z,1.15
2018-02-18T07:31:06.603Z,1.09
2018-02-18T07:33:34.930Z,1.13
2018-02-18T07:36:03.287Z,1.12
2018-02-18T07:38:31.606Z,1.04
2018-02-18T07:40:59.979Z,1.14
2018-02-18T07:43:28.306Z,1.20
2018-02-18T07:45:56.630Z,1.27
2018-02-18T07:48:24.978Z,1.29
2018-02-18T07:50:53.396Z,1.22
2018-02-18T07:53:21.794Z,1.24
2018-02-18T07:55:50.120Z,1.33
2018-02-18T07:58:18.469Z,1.45
2018-02-18T08:00:46.843Z,1.46
2018-02-18T08:03:15.151Z,1.61
2018-02-18T08:05:43.476Z,1.75
2018-02-18T08:08:11.827Z,1.81
2018-02-18T08:10:40.147Z,1.82
2018-02-18T08:13:09.702Z,1.79
2018-02-18T08:15:38.019Z,1.92
2018-02-18T08:18:06.723Z,1.86
2018-02-18T08:20:35.053Z,1.98
2018-02-18T08:23:03.378Z,1.99
2018-02-18T08:25:31.829Z,1.87
2018-02-18T08:28:00.152Z,2.02
2018-02-18T08:30:28.572Z,2.14
2018-02-18T08:32:57.038Z,2.13
2018-02-18T08:35:25.378Z,1.95
2018-02-18T08:37:53.710Z,1.89
2018-02-18T08:40:22.058Z,1.92
2018-02-18T08:42:50.390Z,1.91
2018-02-18T08:45:18.730Z,2.07
2018-02-18T08:47:47.068Z,2.28
2018-02-18T08:50:15.417Z,2.03
2018-02-18T08:52:43.783Z,2.10
2018-02-18T08:55:12.107Z,2.17
2018-02-18T08:57:40.455Z,2.17
2018-02-18T09:00:08.784Z,2.28
2018-02-18T09:02:37.194Z,2.02
2018-02-18T09:05:05.600Z,2.08
2018-02-18T09:07:33.939Z,2.33
2018-02-18T09:10:02.309Z,2.20
2018-02-18T09:12:30.609Z,2.23
2018-02-18T09:14:58.936Z,2.19
2018-02-18T09:17:27.278Z,2.32
2018-02-18T09:19:55.604Z,2.29
2018-02-18T09:22:24.002Z,2.15
2018-02-18T09:24:52.398Z,2.46
2018-02-18T09:27:20.712Z,2.35
2018-02-18T09:29:49.064Z,2.35
2018-02-18T09:32:17.396Z,2.56
2018-02-18T09:34:45.761Z,2.57
2018-02-18T09:37:14.081Z,2.56
2018-02-18T09:39:42.436Z,2.59
2018-02-18T09:42:10.763Z,2.72
2018-02-18T09:44:39.112Z,2.91
2018-02-18T09:47:07.855Z,3.04
2018-02-18T09:49:36.217Z,3.27
2018-02-18T09:52:04.589Z,3.23
2018-02-18T09:54:32.902Z,3.35
2018-02-18T09:57:01.255Z,3.30
2018-02-18T09:59:29.578Z,3.46
2018-02-18T10:01:57.970Z,3.64
2018-02-18T10:04:26.295Z,3.65
2018-02-18T10:06:54.641Z,3.79
2018-02-18T10:09:23.039Z,4.02
2018-02-18T10:11:51.484Z,3.73
2018-02-18T10:14:19.827Z,3.76
2018-02-18T10:16:48.196Z,3.58
2018-02-18T10:19:16.607Z,3.46
2018-02-18T10:21:44.960Z,3.43
2018-02-18T10:24:13.303Z,3.43
2018-02-18T10:26:41.654Z,2.95
2018-02-18T10:29:09.994Z,2.98
2018-02-18T10:31:38.354Z,2.75
2018-02-18T10:34:06.691Z,2.80
2018-02-18T10:36:35.022Z,2.91
2018-02-18T10:39:03.377Z,2.93
2018-02-18T10:41:31.694Z,2.84
2018-02-18T10:44:00.228Z,3.09
2018-02-18T10:46:28.572Z,3.24
2018-02-18T10:48:56.933Z,3.18
2018-02-18T10:51:25.271Z,3.46
2018-02-18T10:53:53.647Z,3.51
2018-02-18T10:56:21.978Z,3.34
2018-02-18T10:58:50.335Z,3.32
2018-02-18T11:01:18.668Z,3.37
2018-02-18T11:03:47.009Z,3.34
2018-02-18T11:06:15.384Z,3.29
2018-02-18T11:08:43.809Z,3.31
2018-02-18T11:11:12.146Z,3.58
2018-02-18T11:13:40.482Z,3.45
2018-02-18T11:16:08.908Z,3.33
2018-02-18T11:18:37.250Z,3.08
2018-02-18T11:21:05.611Z,3.44
2018-02-18T11:23:33.932Z,3.28
2018-02-18T11:26:02.352Z,3.41
2018-02-18T11:28:30.668Z,3.40
2018-02-18T11:30:59.064Z,3.16
2018-02-18T11:33:27.480Z,3.01
2018-02-18T11:35:55.860Z,2.96
2018-02-18T11:38:24.245Z,3.02
2018-02-18T11:40:52.613Z,2.86
2018-02-18T11:43:20.947Z,3.11
2018-02-18T11:45:49.320Z,3.04
2018-02-18T11:48:17.746Z,2.99
2018-02-18T11:50:46.137Z,3.03
2018-02-18T11:53:14.640Z,2.78
2018-02-18T11:55:44.131Z,2.76
2018-02-18T11:58:12.481Z,3.00
2018-02-18T12:00:40.830Z,2.91
2018-02-18T12:03:09.154Z,2.98
2018-02-18T12:05:37.504Z,3.01
2018-02-18T12:08:05.836Z,3.00
2018-02-18T12:10:34.195Z,2.92
2018-02-18T12:13:02.524Z,2.95
2018-02-18T12:15:30.895Z,2.98
2018-02-18T12:17:59.252Z,3.13
2018-02-18T12:20:27.573Z,3.04
2018-02-18T12:22:55.978Z,3.20
2018-02-18T12:25:24.313Z,3.03
2018-02-18T12:27:52.713Z,3.34
2018-02-18T12:30:21.108Z,3.53
2018-02-18T12:32:49.451Z,3.50
2018-02-18T12:35:17.776Z,3.49
2018-02-18T12:37:46.124Z,3.26
2018-02-18T12:40:14.453Z,3.51
2018-02-18T12:42:42.808Z,3.64
2018-02-18T12:45:11.238Z,3.59
2018-02-18T12:47:39.589Z,3.76
2018-02-18T12:50:08.030Z,3.87
2018-02-18T12:52:37.102Z,3.95
2018-02-18T12:55:05.477Z,5.04
2018-02-18T12:57:33.846Z,5.32
2018-02-18T13:00:02.155Z,5.35
2018-02-18T13:02:30.493Z,5.61
2018-02-18T13:04:58.864Z,5.46
2018-02-18T13:07:27.195Z,4.95
2018-02-18T13:09:55.534Z,4.65
2018-02-18T13:12:23.951Z,3.98
2018-02-18T13:14:52.290Z,3.90
2018-02-18T13:17:20.606Z,3.51
2018-02-18T13:19:48.977Z,3.31
2018-02-18T13:22:17.302Z,3.64
2018-02-18T13:24:45.620Z,3.69
2018-02-18T13:27:14.017Z,3.64
2018-02-18T13:29:42.387Z,3.98
2018-02-18T13:32:10.722Z,3.82
2018-02-18T13:34:39.056Z,3.54
2018-02-18T13:37:07.735Z,3.40
2018-02-18T13:39:36.052Z,3.31
2018-02-18T13:42:04.423Z,3.42
2018-02-18T13:44:32.771Z,3.26
2018-02-18T13:47:01.107Z,3.12
2018-02-18T13:49:29.435Z,3.18
2018-02-18T13:51:57.800Z,2.98
2018-02-18T13:54:26.148Z,3.20
2018-02-18T13:56:54.458Z,3.31
2018-02-18T13:59:22.802Z,3.30
2018-02-18T14:01:51.131Z,3.37
2018-02-18T14:04:19.564Z,3.13
2018-02-18T14:06:47.886Z,2.84
2018-02-18T14:09:16.197Z,2.90
2018-02-18T14:11:44.556Z,2.95
2018-02-18T14:14:12.878Z,2.98
2018-02-18T14:16:41.224Z,2.95
2018-02-18T14:19:09.615Z,2.78
2018-02-18T14:21:37.967Z,2.77
2018-02-18T14:24:06.307Z,2.71
2018-02-18T14:26:34.647Z,2.85
2018-02-18T14:29:03.065Z,2.86
2018-02-18T14:31:31.444Z,2.64
2018-02-18T14:33:59.770Z,2.61
2018-02-18T14:36:28.098Z,2.56
2018-02-18T14:38:56.476Z,2.68
2018-02-18T14:41:36.725Z,2.65
2018-02-18T14:44:16.947Z,2.63
2018-02-18T14:46:57.315Z,2.69
2018-02-18T14:49:37.584Z,2.72
2018-02-18T14:52:17.975Z,2.62
2018-02-18T14:57:42.292Z,2.47
2018-02-18T15:00:12.631Z,2.42
2018-02-18T15:02:41.022Z,2.35
2018-02-18T15:05:10.293Z,2.41
2018-02-18T15:07:38.620Z,2.46
2018-02-18T15:10:06.982Z,2.45
2018-02-18T15:12:36.286Z,2.37
2018-02-18T15:15:04.665Z,2.26
2018-02-18T15:17:32.994Z,2.17
2018-02-18T15:20:01.349Z,2.21
2018-02-18T15:22:30.684Z,2.07
2018-02-18T15:24:59.048Z,2.10
2018-02-18T15:27:27.392Z,2.18
2018-02-18T15:29:55.743Z,2.19
2018-02-18T15:32:24.080Z,2.08
2018-02-18T15:34:52.829Z,2.12
2018-02-18T15:37:21.155Z,2.14
2018-02-18T15:39:49.492Z,2.07
2018-02-18T15:42:17.890Z,2.07
2018-02-18T15:44:46.368Z,2.07
2018-02-18T15:47:15.739Z,2.04
2018-02-18T15:49:44.077Z,2.01
2018-02-18T15:52:12.436Z,2.04
2018-02-18T15:54:40.794Z,2.01
2018-02-18T15:57:09.164Z,2.02
2018-02-18T15:59:37.494Z,1.88
2018-02-18T16:02:05.832Z,1.91
2018-02-18T16:04:35.204Z,1.85
2018-02-18T16:07:03.552Z,1.80
2018-02-18T16:09:31.911Z,1.76
2018-02-18T16:12:00.256Z,1.79
2018-02-18T16:14:28.616Z,1.73
2018-02-18T16:16:56.954Z,1.69
2018-02-18T16:19:25.315Z,1.78
2018-02-18T16:21:53.645Z,1.70
2018-02-18T16:24:21.995Z,1.62
2018-02-18T16:26:50.333Z,1.60
2018-02-18T16:29:18.696Z,1.65
2018-02-18T16:31:47.034Z,1.60
2018-02-18T16:34:15.369Z,1.55
2018-02-18T16:36:43.807Z,1.64
2018-02-18T16:39:12.143Z,1.62
2018-02-18T16:41:40.501Z,1.65
2018-02-18T16:44:08.837Z,1.64
2018-02-18T16:46:37.196Z,1.62
2018-02-18T16:49:05.532Z,1.54
2018-02-18T16:51:33.890Z,1.55
2018-02-18T16:54:02.294Z,1.54
2018-02-18T16:56:30.674Z,1.59
2018-02-18T16:58:58.996Z,1.53
2018-02-18T17:01:27.429Z,1.58
2018-02-18T17:03:55.805Z,1.65
2018-02-18T17:06:24.252Z,1.57
2018-02-18T17:08:52.615Z,1.58
2018-02-18T17:11:20.951Z,1.56
2018-02-18T17:13:49.317Z,1.64
2018-02-18T17:16:17.650Z,1.57
2018-02-18T17:18:46.019Z,1.66
2018-02-18T17:21:14.357Z,1.68
2018-02-18T17:23:42.705Z,1.71
2018-02-18T17:26:11.045Z,1.70
2018-02-18T17:28:39.427Z,1.63
2018-02-18T17:31:07.889Z,1.68
2018-02-18T17:33:36.230Z,1.60
2018-02-18T17:36:04.624Z,1.63
2018-02-18T17:38:33.010Z,1.64
2018-02-18T17:41:01.382Z,1.67
2018-02-18T17:43:29.698Z,1.63
2018-02-18T17:45:58.040Z,1.59
2018-02-18T17:48:26.408Z,1.62
2018-02-18T17:50:54.762Z,1.75
2018-02-18T17:53:23.140Z,1.68
2018-02-18T17:55:51.467Z,1.74
2018-02-18T17:58:19.818Z,1.68
2018-02-18T18:00:48.179Z,1.70
2018-02-18T18:03:16.535Z,1.66
2018-02-18T18:05:44.856Z,1.67
2018-02-18T18:08:13.296Z,1.68
2018-02-18T18:10:41.629Z,1.66
2018-02-18T18:13:09.990Z,1.69
2018-02-18T18:15:38.314Z,1.66
2018-02-18T18:18:06.632Z,1.70
2018-02-18T18:20:34.987Z,1.61
2018-02-18T18:23:03.350Z,1.59
2018-02-18T18:25:31.700Z,1.50
2018-02-18T18:28:00.030Z,1.57
2018-02-18T18:30:28.382Z,1.52
2018-02-18T18:32:56.756Z,1.58
2018-02-18T18:35:25.117Z,1.50
2018-02-18T18:37:53.461Z,1.67
2018-02-18T18:40:21.863Z,1.59
2018-02-18T18:42:50.186Z,1.53
2018-02-18T18:45:18.516Z,1.43
2018-02-18T18:47:46.867Z,1.46
2018-02-18T18:50:15.207Z,1.46
2018-02-18T18:52:43.553Z,1.48
2018-02-18T18:55:11.867Z,1.41
2018-02-18T18:57:40.226Z,1.43
2018-02-18T19:00:08.542Z,1.36
2018-02-18T19:02:36.920Z,1.22
2018-02-18T19:05:05.227Z,1.14
2018-02-18T19:12:42.877Z,1.02
2018-02-18T19:15:11.227Z,0.96
2018-02-18T19:17:39.542Z,0.90
2018-02-18T19:20:07.908Z,0.80
2018-02-18T19:22:36.245Z,0.79
2018-02-18T19:25:04.656Z,0.70
2018-02-18T19:27:32.975Z,0.74
2018-02-18T19:30:01.332Z,0.65
2018-02-18T19:32:29.689Z,0.63
2018-02-18T19:34:58.028Z,0.47
2018-02-18T19:37:26.378Z,0.40
2018-02-18T19:39:54.748Z,0.33
2018-02-18T19:42:23.064Z,0.17
2018-02-18T19:44:51.582Z,0.14
2018-02-18T19:47:20.007Z,0.22
2018-02-18T19:49:48.340Z,0.18
2018-02-18T19:52:16.679Z,0.16
2018-02-18T19:54:47.600Z,0.08
2018-02-18T19:57:15.944Z,0.05
2018-02-18T19:59:44.267Z,0.06
2018-02-18T20:02:12.629Z,0.14
2018-02-18T20:04:40.947Z,0.08
2018-02-18T20:07:09.309Z,0.09
2018-02-18T20:09:37.639Z,0.17
2018-02-18T20:12:05.987Z,0.07
2018-02-18T20:14:34.320Z,-0.01
2018-02-18T20:17:02.672Z,0.09
2018-02-18T20:19:30.995Z,0.05
2018-02-18T20:21:59.489Z,0.05
2018-02-18T20:24:27.810Z,-0.08
2018-02-18T20:26:56.146Z,-0.04
2018-02-18T20:29:24.490Z,-0.12
2018-02-18T20:34:27.551Z,-0.09
2018-02-18T20:36:56.016Z,-0.18
2018-02-18T20:39:24.351Z,-0.21
2018-02-18T20:41:52.677Z,-0.26
2018-02-18T20:44:21.032Z,-0.34
2018-02-18T20:46:49.362Z,-0.36
2018-02-18T20:49:17.712Z,-0.43
2018-02-18T20:51:46.043Z,-0.45
2018-02-18T20:54:14.402Z,-0.49
2018-02-18T20:56:42.732Z,-0.51
2018-02-18T20:59:11.092Z,-0.45
2018-02-18T21:01:39.416Z,-0.43
2018-02-18T21:04:07.776Z,-0.60
2018-02-18T21:06:36.196Z,-0.34
2018-02-18T21:09:04.515Z,-0.43
2018-02-18T21:11:32.891Z,-0.69
2018-02-18T21:14:01.215Z,-0.62
2018-02-18T21:16:29.568Z,-0.88
2018-02-18T21:18:57.898Z,-0.66
2018-02-18T21:21:26.265Z,-0.61
2018-02-18T21:23:54.592Z,-0.67
2018-02-18T21:26:23.333Z,-0.76
2018-02-18T21:28:51.782Z,-0.80
2018-02-18T21:31:20.142Z,-0.87
2018-02-18T21:33:48.471Z,-1.00
2018-02-18T21:36:16.826Z,-0.87
2018-02-18T21:38:45.169Z,-0.93
2018-02-18T21:41:13.533Z,-0.89
2018-02-18T21:43:41.863Z,-0.83
2018-02-18T21:46:10.199Z,-0.88
2018-02-18T21:48:38.535Z,-1.04
2018-02-18T21:51:06.907Z,-0.89
2018-02-18T21:53:35.321Z,-0.96
2018-02-18T21:56:03.675Z,-1.01
2018-02-18T21:58:32.006Z,-0.97
2018-02-18T22:01:00.362Z,-1.14
2018-02-18T22:03:28.691Z,-1.12
2018-02-18T22:05:57.072Z,-1.02
2018-02-18T22:08:25.593Z,-1.04
2018-02-18T22:10:53.916Z,-0.99
2018-02-18T22:13:22.264Z,-1.01
2018-02-18T22:15:50.646Z,-1.06
2018-02-18T22:18:19.063Z,-1.09
2018-02-18T22:20:47.407Z,-1.07
2018-02-18T22:23:15.747Z,-1.15
2018-02-18T22:25:44.080Z,-1.17
2018-02-18T22:28:12.478Z,-1.21
2018-02-18T22:30:40.811Z,-1.37
2018-02-18T22:33:09.246Z,-1.29
2018-02-18T22:35:37.558Z,-1.21
2018-02-18T22:38:05.908Z,-1.38
2018-02-18T22:40:34.243Z,-1.32
2018-02-18T22:43:02.602Z,-1.29
2018-02-18T22:45:30.934Z,-1.37
2018-02-18T22:47:59.303Z,-1.48
2018-02-18T22:50:27.642Z,-1.40
2018-02-18T22:52:56.157Z,-1.43
2018-02-18T22:55:25.204Z,-1.38
2018-02-18T22:57:53.526Z,-1.39
2018-02-18T23:00:21.871Z,-1.42
2018-02-18T23:02:50.203Z,-1.35
2018-02-18T23:05:24.324Z,-1.33
2018-02-18T23:07:52.658Z,-1.45
2018-02-18T23:10:21.050Z,-1.42
2018-02-18T23:12:49.384Z,-1.47
2018-02-18T23:15:17.810Z,-1.73
2018-02-18T23:17:46.151Z,-1.84
2018-02-18T23:20:14.525Z,-1.87
2018-02-18T23:22:42.851Z,-1.91
2018-02-18T23:25:11.193Z,-1.82
2018-02-18T23:27:39.531Z,-1.80
2018-02-18T23:30:07.887Z,-1.85
2018-02-18T23:32:36.237Z,-1.76
2018-02-18T23:35:04.627Z,-1.88
2018-02-18T23:37:32.959Z,-1.93
2018-02-18T23:40:01.311Z,-2.04
2018-02-18T23:42:29.642Z,-2.21
2018-02-18T23:44:58.084Z,-2.24
2018-02-18T23:47:26.464Z,-2.26
2018-02-18T23:49:54.796Z,-2.42
2018-02-18T23:52:23.178Z,-2.32
2018-02-18T23:54:51.540Z,-2.37
2018-02-18T23:57:19.872Z,-2.28
2018-02-18T23:59:48.212Z,-2.39
